sensor_id;sensor_type;location;lat;lon;timestamp;pressure;altitude;pressure_sealevel;temperature
14784;BMP180;7483;50.498;12.138;2022-08-27T00:02:20;96854.00;;;19.10
14784;BMP180;7483;50.498;12.138;2022-08-27T00:04:48;96857.00;;;19.10
14784;BMP180;7483;50.498;12.138;2022-08-27T00:07:16;96856.00;;;19.10
14784;BMP180;7483;50.498;12.138;2022-08-27T00:09:44;96855.00;;;19.20
14784;BMP180;7483;50.498;12.138;2022-08-27T00:12:12;96862.00;;;19.10
14784;BMP180;7483;50.498;12.138;2022-08-27T00:14:41;96860.00;;;19.10
14784;BMP180;7483;50.498;12.138;2022-08-27T00:17:10;96857.00;;;19.20
14784;BMP180;7483;50.498;12.138;2022-08-27T00:19:39;96863.00;;;19.10
14784;BMP180;7483;50.498;12.138;2022-08-27T00:22:09;96814.00;;;19.20
14784;BMP180;7483;50.498;12.138;2022-08-27T00:24:37;96829.00;;;19.20
14784;BMP180;7483;50.498;12.138;2022-08-27T00:27:15;96835.00;;;19.20
14784;BMP180;7483;50.498;12.138;2022-08-27T00:29:44;96850.00;;;19.30
14784;BMP180;7483;50.498;12.138;2022-08-27T00:32:13;96846.00;;;19.30
14784;BMP180;7483;50.498;12.138;2022-08-27T00:34:41;96860.00;;;19.40
14784;BMP180;7483;50.498;12.138;2022-08-27T00:37:10;96864.00;;;19.30
14784;BMP180;7483;50.498;12.138;2022-08-27T00:39:38;96859.00;;;19.20
14784;BMP180;7483;50.498;12.138;2022-08-27T00:42:06;96862.00;;;19.20
14784;BMP180;7483;50.498;12.138;2022-08-27T00:44:34;167582.00;;;226.50
14784;BMP180;7483;50.498;12.138;2022-08-27T00:47:15;231333.00;;;226.50
14784;BMP180;7483;50.498;12.138;2022-08-27T00:49:48;231333.00;;;226.50
14784;BMP180;7483;50.498;12.138;2022-08-27T00:52:21;231333.00;;;226.50
14784;BMP180;7483;50.498;12.138;2022-08-27T00:54:56;231333.00;;;226.50
14784;BMP180;7483;50.498;12.138;2022-08-27T00:57:26;231333.00;;;226.50
14784;BMP180;7483;50.498;12.138;2022-08-27T00:59:54;231333.00;;;226.50
14784;BMP180;7483;50.498;12.138;2022-08-27T01:02:24;231333.00;;;226.50
14784;BMP180;7483;50.498;12.138;2022-08-27T01:05:03;231333.00;;;226.50
14784;BMP180;7483;50.498;12.138;2022-08-27T01:07:36;96863.00;;;19.20
14784;BMP180;7483;50.498;12.138;2022-08-27T01:10:11;96858.00;;;19.10
14784;BMP180;7483;50.498;12.138;2022-08-27T01:12:40;96850.00;;;19.10
14784;BMP180;7483;50.498;12.138;2022-08-27T01:15:13;96861.00;;;19.10
14784;BMP180;7483;50.498;12.138;2022-08-27T01:17:48;96820.00;;;19.20
14784;BMP180;7483;50.498;12.138;2022-08-27T01:20:22;96865.00;;;19.20
14784;BMP180;7483;50.498;12.138;2022-08-27T01:23:02;96862.00;;;19.20
14784;BMP180;7483;50.498;12.138;2022-08-27T01:25:33;96868.00;;;19.20
14784;BMP180;7483;50.498;12.138;2022-08-27T01:28:02;96866.00;;;19.20
14784;BMP180;7483;50.498;12.138;2022-08-27T01:30:31;96870.00;;;19.10
14784;BMP180;7483;50.498;12.138;2022-08-27T01:32:59;96871.00;;;19.00
14784;BMP180;7483;50.498;12.138;2022-08-27T01:35:27;96868.00;;;19.00
14784;BMP180;7483;50.498;12.138;2022-08-27T01:37:56;96875.00;;;19.00
14784;BMP180;7483;50.498;12.138;2022-08-27T01:40:25;96884.00;;;18.90
14784;BMP180;7483;50.498;12.138;2022-08-27T01:42:56;96883.00;;;18.90
14784;BMP180;7483;50.498;12.138;2022-08-27T01:45:28;96882.00;;;18.90
14784;BMP180;7483;50.498;12.138;2022-08-27T01:47:58;96877.00;;;19.00
14784;BMP180;7483;50.498;12.138;2022-08-27T01:50:29;96889.00;;;19.00
14784;BMP180;7483;50.498;12.138;2022-08-27T01:53:02;96888.00;;;19.10
14784;BMP180;7483;50.498;12.138;2022-08-27T01:55:31;96883.00;;;19.00
14784;BMP180;7483;50.498;12.138;2022-08-27T01:58:00;96886.00;;;19.00
14784;BMP180;7483;50.498;12.138;2022-08-27T02:00:32;96871.00;;;19.00
14784;BMP180;7483;50.498;12.138;2022-08-27T02:03:01;96879.00;;;19.00
14784;BMP180;7483;50.498;12.138;2022-08-27T02:05:29;96837.00;;;19.10
14784;BMP180;7483;50.498;12.138;2022-08-27T02:08:11;96886.00;;;19.10
14784;BMP180;7483;50.498;12.138;2022-08-27T02:10:39;96878.00;;;19.10
14784;BMP180;7483;50.498;12.138;2022-08-27T02:13:09;96875.00;;;19.10
14784;BMP180;7483;50.498;12.138;2022-08-27T02:15:41;96877.00;;;19.10
14784;BMP180;7483;50.498;12.138;2022-08-27T02:18:10;96876.00;;;19.10
14784;BMP180;7483;50.498;12.138;2022-08-27T02:20:40;96815.00;;;19.10
14784;BMP180;7483;50.498;12.138;2022-08-27T02:23:08;96805.00;;;19.10
14784;BMP180;7483;50.498;12.138;2022-08-27T02:25:36;96809.00;;;19.10
14784;BMP180;7483;50.498;12.138;2022-08-27T02:28:09;96823.00;;;19.10
14784;BMP180;7483;50.498;12.138;2022-08-27T02:30:37;96827.00;;;19.00
14784;BMP180;7483;50.498;12.138;2022-08-27T02:33:06;96825.00;;;19.00
14784;BMP180;7483;50.498;12.138;2022-08-27T02:35:36;96835.00;;;18.90
14784;BMP180;7483;50.498;12.138;2022-08-27T02:38:06;96833.00;;;18.90
14784;BMP180;7483;50.498;12.138;2022-08-27T02:40:35;96834.00;;;18.80
14784;BMP180;7483;50.498;12.138;2022-08-27T02:43:04;96841.00;;;18.90
14784;BMP180;7483;50.498;12.138;2022-08-27T02:45:34;96836.00;;;19.00
14784;BMP180;7483;50.498;12.138;2022-08-27T02:48:05;96840.00;;;18.90
14784;BMP180;7483;50.498;12.138;2022-08-27T02:50:34;96835.00;;;19.00
14784;BMP180;7483;50.498;12.138;2022-08-27T02:53:05;96837.00;;;18.90
14784;BMP180;7483;50.498;12.138;2022-08-27T02:55:34;96845.00;;;18.90
14784;BMP180;7483;50.498;12.138;2022-08-27T02:58:03;96845.00;;;18.90
14784;BMP180;7483;50.498;12.138;2022-08-27T03:00:32;96837.00;;;18.90
14784;BMP180;7483;50.498;12.138;2022-08-27T03:03:01;96833.00;;;18.70
14784;BMP180;7483;50.498;12.138;2022-08-27T03:05:29;96839.00;;;18.70
14784;BMP180;7483;50.498;12.138;2022-08-27T03:07:57;96818.00;;;18.80
14784;BMP180;7483;50.498;12.138;2022-08-27T03:10:25;96805.00;;;18.80
14784;BMP180;7483;50.498;12.138;2022-08-27T03:12:54;96776.00;;;18.80
14784;BMP180;7483;50.498;12.138;2022-08-27T03:15:22;96817.00;;;18.80
14784;BMP180;7483;50.498;12.138;2022-08-27T03:17:52;96813.00;;;18.80
14784;BMP180;7483;50.498;12.138;2022-08-27T03:20:39;96801.00;;;18.80
14784;BMP180;7483;50.498;12.138;2022-08-27T03:23:09;96869.00;;;18.80
14784;BMP180;7483;50.498;12.138;2022-08-27T03:25:38;96867.00;;;18.80
14784;BMP180;7483;50.498;12.138;2022-08-27T03:28:06;96859.00;;;18.80
14784;BMP180;7483;50.498;12.138;2022-08-27T03:30:50;96839.00;;;18.80
14784;BMP180;7483;50.498;12.138;2022-08-27T03:33:20;96845.00;;;18.80
14784;BMP180;7483;50.498;12.138;2022-08-27T03:35:49;96817.00;;;18.80
14784;BMP180;7483;50.498;12.138;2022-08-27T03:38:18;96855.00;;;18.80
14784;BMP180;7483;50.498;12.138;2022-08-27T03:40:46;96846.00;;;18.70
14784;BMP180;7483;50.498;12.138;2022-08-27T03:43:18;96838.00;;;18.90
14784;BMP180;7483;50.498;12.138;2022-08-27T03:45:48;96865.00;;;18.90
14784;BMP180;7483;50.498;12.138;2022-08-27T03:48:30;96849.00;;;18.90
14784;BMP180;7483;50.498;12.138;2022-08-27T03:51:03;96841.00;;;18.90
14784;BMP180;7483;50.498;12.138;2022-08-27T03:53:32;96850.00;;;18.80
14784;BMP180;7483;50.498;12.138;2022-08-27T03:56:00;96838.00;;;18.90
14784;BMP180;7483;50.498;12.138;2022-08-27T03:58:29;96842.00;;;19.00
14784;BMP180;7483;50.498;12.138;2022-08-27T04:00:57;96836.00;;;19.10
14784;BMP180;7483;50.498;12.138;2022-08-27T04:03:26;96836.00;;;19.20
14784;BMP180;7483;50.498;12.138;2022-08-27T04:05:56;96836.00;;;19.20
14784;BMP180;7483;50.498;12.138;2022-08-27T04:08:26;96834.00;;;19.10
14784;BMP180;7483;50.498;12.138;2022-08-27T04:10:54;96835.00;;;19.10
14784;BMP180;7483;50.498;12.138;2022-08-27T04:13:23;96806.00;;;19.00
14784;BMP180;7483;50.498;12.138;2022-08-27T04:15:52;96841.00;;;19.10
14784;BMP180;7483;50.498;12.138;2022-08-27T04:18:21;96824.00;;;19.00
14784;BMP180;7483;50.498;12.138;2022-08-27T04:20:50;96834.00;;;19.00
14784;BMP180;7483;50.498;12.138;2022-08-27T04:23:20;96835.00;;;19.00
14784;BMP180;7483;50.498;12.138;2022-08-27T04:25:49;96826.00;;;18.90
14784;BMP180;7483;50.498;12.138;2022-08-27T04:28:17;96825.00;;;18.90
14784;BMP180;7483;50.498;12.138;2022-08-27T04:30:46;96830.00;;;19.00
14784;BMP180;7483;50.498;12.138;2022-08-27T04:33:14;96841.00;;;19.00
14784;BMP180;7483;50.498;12.138;2022-08-27T04:35:42;96838.00;;;19.00
14784;BMP180;7483;50.498;12.138;2022-08-27T04:38:11;96842.00;;;19.10
14784;BMP180;7483;50.498;12.138;2022-08-27T04:40:40;96848.00;;;19.10
14784;BMP180;7483;50.498;12.138;2022-08-27T04:43:26;96838.00;;;19.10
14784;BMP180;7483;50.498;12.138;2022-08-27T04:45:55;96849.00;;;19.20
14784;BMP180;7483;50.498;12.138;2022-08-27T04:48:23;96852.00;;;19.20
14784;BMP180;7483;50.498;12.138;2022-08-27T04:50:52;96854.00;;;19.20
14784;BMP180;7483;50.498;12.138;2022-08-27T04:53:20;96852.00;;;19.20
14784;BMP180;7483;50.498;12.138;2022-08-27T04:55:52;96848.00;;;19.20
14784;BMP180;7483;50.498;12.138;2022-08-27T04:58:23;96853.00;;;19.20
14784;BMP180;7483;50.498;12.138;2022-08-27T05:00:55;96861.00;;;19.20
14784;BMP180;7483;50.498;12.138;2022-08-27T05:03:27;96838.00;;;19.20
14784;BMP180;7483;50.498;12.138;2022-08-27T05:06:00;96856.00;;;19.10
14784;BMP180;7483;50.498;12.138;2022-08-27T05:08:30;96856.00;;;19.00
14784;BMP180;7483;50.498;12.138;2022-08-27T05:11:00;96851.00;;;18.90
14784;BMP180;7483;50.498;12.138;2022-08-27T05:13:28;96856.00;;;18.90
14784;BMP180;7483;50.498;12.138;2022-08-27T05:15:59;96872.00;;;18.90
14784;BMP180;7483;50.498;12.138;2022-08-27T05:18:28;96859.00;;;18.90
14784;BMP180;7483;50.498;12.138;2022-08-27T05:20:59;96867.00;;;19.00
14784;BMP180;7483;50.498;12.138;2022-08-27T05:23:27;96862.00;;;19.10
14784;BMP180;7483;50.498;12.138;2022-08-27T05:25:56;96860.00;;;19.00
14784;BMP180;7483;50.498;12.138;2022-08-27T05:28:27;96861.00;;;19.10
14784;BMP180;7483;50.498;12.138;2022-08-27T05:31:04;96859.00;;;19.00
14784;BMP180;7483;50.498;12.138;2022-08-27T05:33:33;96863.00;;;19.00
14784;BMP180;7483;50.498;12.138;2022-08-27T05:36:02;96848.00;;;18.90
14784;BMP180;7483;50.498;12.138;2022-08-27T05:38:31;96851.00;;;18.80
14784;BMP180;7483;50.498;12.138;2022-08-27T05:41:05;96847.00;;;18.80
14784;BMP180;7483;50.498;12.138;2022-08-27T05:43:37;96857.00;;;18.70
14784;BMP180;7483;50.498;12.138;2022-08-27T05:46:08;96854.00;;;18.80
14784;BMP180;7483;50.498;12.138;2022-08-27T05:48:39;96861.00;;;18.90
14784;BMP180;7483;50.498;12.138;2022-08-27T05:51:13;96856.00;;;19.00
14784;BMP180;7483;50.498;12.138;2022-08-27T05:53:55;96858.00;;;18.90
14784;BMP180;7483;50.498;12.138;2022-08-27T05:56:27;96857.00;;;18.90
14784;BMP180;7483;50.498;12.138;2022-08-27T05:58:56;96850.00;;;18.80
14784;BMP180;7483;50.498;12.138;2022-08-27T06:01:45;96865.00;;;18.80
14784;BMP180;7483;50.498;12.138;2022-08-27T06:04:16;96862.00;;;18.80
14784;BMP180;7483;50.498;12.138;2022-08-27T06:06:45;96853.00;;;18.90
14784;BMP180;7483;50.498;12.138;2022-08-27T06:09:17;96871.00;;;19.00
14784;BMP180;7483;50.498;12.138;2022-08-27T06:11:46;96859.00;;;19.10
14784;BMP180;7483;50.498;12.138;2022-08-27T06:14:15;96862.00;;;19.20
14784;BMP180;7483;50.498;12.138;2022-08-27T06:16:43;96865.00;;;19.20
14784;BMP180;7483;50.498;12.138;2022-08-27T06:19:11;96864.00;;;19.30
14784;BMP180;7483;50.498;12.138;2022-08-27T06:21:41;96856.00;;;19.30
14784;BMP180;7483;50.498;12.138;2022-08-27T06:24:11;96831.00;;;19.20
14784;BMP180;7483;50.498;12.138;2022-08-27T06:26:41;96817.00;;;19.00
14784;BMP180;7483;50.498;12.138;2022-08-27T06:29:11;96823.00;;;18.90
14784;BMP180;7483;50.498;12.138;2022-08-27T06:31:41;96886.00;;;19.00
14784;BMP180;7483;50.498;12.138;2022-08-27T06:34:10;96872.00;;;19.00
14784;BMP180;7483;50.498;12.138;2022-08-27T06:36:41;96875.00;;;18.90
14784;BMP180;7483;50.498;12.138;2022-08-27T06:39:10;96889.00;;;18.90
14784;BMP180;7483;50.498;12.138;2022-08-27T06:41:41;96881.00;;;18.90
14784;BMP180;7483;50.498;12.138;2022-08-27T06:44:12;96883.00;;;18.90
14784;BMP180;7483;50.498;12.138;2022-08-27T06:46:42;96877.00;;;18.90
14784;BMP180;7483;50.498;12.138;2022-08-27T06:49:11;96861.00;;;19.00
14784;BMP180;7483;50.498;12.138;2022-08-27T06:51:43;96859.00;;;19.00
14784;BMP180;7483;50.498;12.138;2022-08-27T06:54:13;96886.00;;;19.00
14784;BMP180;7483;50.498;12.138;2022-08-27T06:56:42;96877.00;;;19.00
14784;BMP180;7483;50.498;12.138;2022-08-27T06:59:15;96878.00;;;19.00
14784;BMP180;7483;50.498;12.138;2022-08-27T07:01:47;96886.00;;;18.90
14784;BMP180;7483;50.498;12.138;2022-08-27T07:04:20;96889.00;;;18.90
14784;BMP180;7483;50.498;12.138;2022-08-27T07:06:58;96873.00;;;18.80
14784;BMP180;7483;50.498;12.138;2022-08-27T07:09:27;96893.00;;;18.80
14784;BMP180;7483;50.498;12.138;2022-08-27T07:11:57;96877.00;;;18.80
14784;BMP180;7483;50.498;12.138;2022-08-27T07:14:25;96883.00;;;18.80
14784;BMP180;7483;50.498;12.138;2022-08-27T07:16:55;96888.00;;;18.80
14784;BMP180;7483;50.498;12.138;2022-08-27T07:19:23;96893.00;;;18.80
14784;BMP180;7483;50.498;12.138;2022-08-27T07:21:55;96896.00;;;18.80
14784;BMP180;7483;50.498;12.138;2022-08-27T07:24:23;96895.00;;;18.80
14784;BMP180;7483;50.498;12.138;2022-08-27T07:26:51;96902.00;;;18.90
14784;BMP180;7483;50.498;12.138;2022-08-27T07:29:20;96909.00;;;18.90
14784;BMP180;7483;50.498;12.138;2022-08-27T07:31:48;96916.00;;;19.00
14784;BMP180;7483;50.498;12.138;2022-08-27T07:34:17;96908.00;;;19.10
14784;BMP180;7483;50.498;12.138;2022-08-27T07:36:45;96900.00;;;19.20
14784;BMP180;7483;50.498;12.138;2022-08-27T07:39:13;96914.00;;;19.30
14784;BMP180;7483;50.498;12.138;2022-08-27T07:41:42;96908.00;;;19.40
14784;BMP180;7483;50.498;12.138;2022-08-27T07:44:28;96919.00;;;19.20
14784;BMP180;7483;50.498;12.138;2022-08-27T07:47:00;96913.00;;;19.30
14784;BMP180;7483;50.498;12.138;2022-08-27T07:49:30;96918.00;;;19.30
14784;BMP180;7483;50.498;12.138;2022-08-27T07:52:01;96917.00;;;19.30
14784;BMP180;7483;50.498;12.138;2022-08-27T07:54:29;96927.00;;;19.30
14784;BMP180;7483;50.498;12.138;2022-08-27T07:56:58;96925.00;;;19.30
14784;BMP180;7483;50.498;12.138;2022-08-27T07:59:26;96919.00;;;19.30
14784;BMP180;7483;50.498;12.138;2022-08-27T08:01:55;96925.00;;;19.30
14784;BMP180;7483;50.498;12.138;2022-08-27T08:04:24;96922.00;;;19.30
14784;BMP180;7483;50.498;12.138;2022-08-27T08:06:54;96887.00;;;19.20
14784;BMP180;7483;50.498;12.138;2022-08-27T08:09:23;96922.00;;;18.90
14784;BMP180;7483;50.498;12.138;2022-08-27T08:11:52;96929.00;;;18.80
14784;BMP180;7483;50.498;12.138;2022-08-27T08:14:21;96932.00;;;18.70
14784;BMP180;7483;50.498;12.138;2022-08-27T08:16:49;96941.00;;;18.40
14784;BMP180;7483;50.498;12.138;2022-08-27T08:19:17;96927.00;;;18.40
14784;BMP180;7483;50.498;12.138;2022-08-27T08:21:45;96938.00;;;18.40
14784;BMP180;7483;50.498;12.138;2022-08-27T08:24:14;96940.00;;;18.40
14784;BMP180;7483;50.498;12.138;2022-08-27T08:26:44;96815.00;;;18.40
14784;BMP180;7483;50.498;12.138;2022-08-27T08:29:13;93174.00;;;18.50
14784;BMP180;7483;50.498;12.138;2022-08-27T08:31:44;96926.00;;;18.50
14784;BMP180;7483;50.498;12.138;2022-08-27T08:34:16;96929.00;;;18.50
14784;BMP180;7483;50.498;12.138;2022-08-27T08:36:45;96934.00;;;18.40
14784;BMP180;7483;50.498;12.138;2022-08-27T08:39:21;96938.00;;;18.50
14784;BMP180;7483;50.498;12.138;2022-08-27T08:41:54;96933.00;;;18.40
14784;BMP180;7483;50.498;12.138;2022-08-27T08:44:28;96955.00;;;18.50
14784;BMP180;7483;50.498;12.138;2022-08-27T08:47:05;96965.00;;;18.50
14784;BMP180;7483;50.498;12.138;2022-08-27T08:49:46;96957.00;;;18.60
14784;BMP180;7483;50.498;12.138;2022-08-27T08:52:28;96964.00;;;18.60
14784;BMP180;7483;50.498;12.138;2022-08-27T08:55:10;96976.00;;;18.60
14784;BMP180;7483;50.498;12.138;2022-08-27T08:57:46;96975.00;;;18.50
14784;BMP180;7483;50.498;12.138;2022-08-27T09:00:15;96968.00;;;18.50
14784;BMP180;7483;50.498;12.138;2022-08-27T09:02:51;96971.00;;;18.60
14784;BMP180;7483;50.498;12.138;2022-08-27T09:05:22;96954.00;;;18.60
14784;BMP180;7483;50.498;12.138;2022-08-27T09:08:04;96964.00;;;18.70
14784;BMP180;7483;50.498;12.138;2022-08-27T09:11:04;93297.00;;;18.70
14784;BMP180;7483;50.498;12.138;2022-08-27T09:13:39;93993.00;;;18.30
14784;BMP180;7483;50.498;12.138;2022-08-27T09:16:09;94250.00;;;18.20
14784;BMP180;7483;50.498;12.138;2022-08-27T09:18:40;96967.00;;;18.70
14784;BMP180;7483;50.498;12.138;2022-08-27T09:21:24;96970.00;;;18.70
14784;BMP180;7483;50.498;12.138;2022-08-27T09:24:10;96966.00;;;18.70
14784;BMP180;7483;50.498;12.138;2022-08-27T09:26:43;96961.00;;;18.70
14784;BMP180;7483;50.498;12.138;2022-08-27T09:29:15;96962.00;;;18.70
14784;BMP180;7483;50.498;12.138;2022-08-27T09:31:54;96963.00;;;18.70
14784;BMP180;7483;50.498;12.138;2022-08-27T09:34:24;96965.00;;;18.80
14784;BMP180;7483;50.498;12.138;2022-08-27T09:37:01;96985.00;;;18.90
14784;BMP180;7483;50.498;12.138;2022-08-27T09:39:43;96939.00;;;18.90
14784;BMP180;7483;50.498;12.138;2022-08-27T09:42:28;96969.00;;;18.90
14784;BMP180;7483;50.498;12.138;2022-08-27T09:44:57;96977.00;;;19.00
14784;BMP180;7483;50.498;12.138;2022-08-27T09:47:26;96978.00;;;19.00
14784;BMP180;7483;50.498;12.138;2022-08-27T09:50:05;96973.00;;;19.00
14784;BMP180;7483;50.498;12.138;2022-08-27T09:52:38;96966.00;;;19.00
14784;BMP180;7483;50.498;12.138;2022-08-27T09:55:12;96966.00;;;19.10
14784;BMP180;7483;50.498;12.138;2022-08-27T09:57:43;96971.00;;;19.20
14784;BMP180;7483;50.498;12.138;2022-08-27T10:00:16;96978.00;;;19.30
14784;BMP180;7483;50.498;12.138;2022-08-27T10:02:51;96980.00;;;19.30
14784;BMP180;7483;50.498;12.138;2022-08-27T10:05:28;96963.00;;;19.20
14784;BMP180;7483;50.498;12.138;2022-08-27T10:08:02;96965.00;;;19.20
14784;BMP180;7483;50.498;12.138;2022-08-27T10:10:50;96968.00;;;19.30
14784;BMP180;7483;50.498;12.138;2022-08-27T10:13:27;96973.00;;;19.30
14784;BMP180;7483;50.498;12.138;2022-08-27T10:19:32;96960.00;;;19.30
14784;BMP180;7483;50.498;12.138;2022-08-27T10:22:19;96957.00;;;19.20
14784;BMP180;7483;50.498;12.138;2022-08-27T10:25:07;96957.00;;;19.40
14784;BMP180;7483;50.498;12.138;2022-08-27T10:27:54;96957.00;;;19.40
14784;BMP180;7483;50.498;12.138;2022-08-27T10:30:41;96957.00;;;19.30
14784;BMP180;7483;50.498;12.138;2022-08-27T10:33:23;96951.00;;;19.40
14784;BMP180;7483;50.498;12.138;2022-08-27T10:35:59;96950.00;;;19.40
14784;BMP180;7483;50.498;12.138;2022-08-27T10:38:36;96942.00;;;19.30
14784;BMP180;7483;50.498;12.138;2022-08-27T10:41:17;96942.00;;;19.50
14784;BMP180;7483;50.498;12.138;2022-08-27T10:47:16;96951.00;;;19.70
14784;BMP180;7483;50.498;12.138;2022-08-27T10:49:56;96951.00;;;19.90
14784;BMP180;7483;50.498;12.138;2022-08-27T10:52:34;96954.00;;;20.00
14784;BMP180;7483;50.498;12.138;2022-08-27T10:55:18;96961.00;;;20.00
14784;BMP180;7483;50.498;12.138;2022-08-27T10:58:05;96954.00;;;19.90
14784;BMP180;7483;50.498;12.138;2022-08-27T11:00:49;96956.00;;;19.90
14784;BMP180;7483;50.498;12.138;2022-08-27T11:03:27;96952.00;;;20.10
14784;BMP180;7483;50.498;12.138;2022-08-27T11:06:11;96970.00;;;20.20
14784;BMP180;7483;50.498;12.138;2022-08-27T11:08:45;96965.00;;;20.30
14784;BMP180;7483;50.498;12.138;2022-08-27T11:11:34;96964.00;;;20.40
14784;BMP180;7483;50.498;12.138;2022-08-27T11:14:30;96961.00;;;20.40
14784;BMP180;7483;50.498;12.138;2022-08-27T11:17:07;96968.00;;;20.40
14784;BMP180;7483;50.498;12.138;2022-08-27T11:19:52;96964.00;;;20.50
14784;BMP180;7483;50.498;12.138;2022-08-27T11:22:29;96961.00;;;20.50
14784;BMP180;7483;50.498;12.138;2022-08-27T11:25:09;96961.00;;;20.60
14784;BMP180;7483;50.498;12.138;2022-08-27T11:27:41;96959.00;;;20.70
14784;BMP180;7483;50.498;12.138;2022-08-27T11:30:20;96953.00;;;20.60
14784;BMP180;7483;50.498;12.138;2022-08-27T11:33:09;96944.00;;;20.70
14784;BMP180;7483;50.498;12.138;2022-08-27T11:36:05;96947.00;;;20.80
14784;BMP180;7483;50.498;12.138;2022-08-27T11:38:47;96945.00;;;20.80
14784;BMP180;7483;50.498;12.138;2022-08-27T11:42:04;96960.00;;;20.90
14784;BMP180;7483;50.498;12.138;2022-08-27T11:44:39;96957.00;;;21.00
14784;BMP180;7483;50.498;12.138;2022-08-27T11:47:13;96965.00;;;21.00
14784;BMP180;7483;50.498;12.138;2022-08-27T11:49:45;96973.00;;;21.10
14784;BMP180;7483;50.498;12.138;2022-08-27T11:52:25;96965.00;;;21.00
14784;BMP180;7483;50.498;12.138;2022-08-27T11:55:10;96953.00;;;21.00
14784;BMP180;7483;50.498;12.138;2022-08-27T11:57:39;96949.00;;;21.00
14784;BMP180;7483;50.498;12.138;2022-08-27T12:00:17;94621.00;;;20.40
14784;BMP180;7483;50.498;12.138;2022-08-27T12:02:57;96974.00;;;20.80
14784;BMP180;7483;50.498;12.138;2022-08-27T12:05:36;96981.00;;;20.80
14784;BMP180;7483;50.498;12.138;2022-08-27T12:08:28;96975.00;;;20.80
14784;BMP180;7483;50.498;12.138;2022-08-27T12:11:17;96969.00;;;20.80
14784;BMP180;7483;50.498;12.138;2022-08-27T12:13:57;96968.00;;;20.60
14784;BMP180;7483;50.498;12.138;2022-08-27T12:16:38;96961.00;;;20.70
14784;BMP180;7483;50.498;12.138;2022-08-27T12:19:22;96966.00;;;20.90
14784;BMP180;7483;50.498;12.138;2022-08-27T12:22:11;96968.00;;;21.00
14784;BMP180;7483;50.498;12.138;2022-08-27T12:24:49;96919.00;;;21.10
14784;BMP180;7483;50.498;12.138;2022-08-27T12:27:32;96968.00;;;21.10
14784;BMP180;7483;50.498;12.138;2022-08-27T12:30:18;96959.00;;;21.20
14784;BMP180;7483;50.498;12.138;2022-08-27T12:32:50;96959.00;;;21.20
14784;BMP180;7483;50.498;12.138;2022-08-27T12:35:22;96948.00;;;21.10
14784;BMP180;7483;50.498;12.138;2022-08-27T12:38:04;96937.00;;;21.10
14784;BMP180;7483;50.498;12.138;2022-08-27T12:40:47;96963.00;;;21.10
14784;BMP180;7483;50.498;12.138;2022-08-27T12:43:20;96947.00;;;20.90
14784;BMP180;7483;50.498;12.138;2022-08-27T12:45:51;96954.00;;;20.90
14784;BMP180;7483;50.498;12.138;2022-08-27T12:48:27;96954.00;;;21.00
14784;BMP180;7483;50.498;12.138;2022-08-27T12:51:00;96936.00;;;21.10
14784;BMP180;7483;50.498;12.138;2022-08-27T12:53:43;96942.00;;;21.20
14784;BMP180;7483;50.498;12.138;2022-08-27T12:56:38;96944.00;;;21.30
14784;BMP180;7483;50.498;12.138;2022-08-27T12:59:36;96946.00;;;21.20
14784;BMP180;7483;50.498;12.138;2022-08-27T13:02:25;96944.00;;;21.30
14784;BMP180;7483;50.498;12.138;2022-08-27T13:04:54;96897.00;;;21.50
14784;BMP180;7483;50.498;12.138;2022-08-27T13:07:25;96940.00;;;21.30
14784;BMP180;7483;50.498;12.138;2022-08-27T13:10:14;96937.00;;;21.20
14784;BMP180;7483;50.498;12.138;2022-08-27T13:12:47;96938.00;;;21.20
14784;BMP180;7483;50.498;12.138;2022-08-27T13:15:18;96942.00;;;21.30
14784;BMP180;7483;50.498;12.138;2022-08-27T13:17:48;96945.00;;;21.40
14784;BMP180;7483;50.498;12.138;2022-08-27T13:20:21;96923.00;;;21.50
14784;BMP180;7483;50.498;12.138;2022-08-27T13:22:52;96934.00;;;21.70
14784;BMP180;7483;50.498;12.138;2022-08-27T13:25:29;96945.00;;;21.80
14784;BMP180;7483;50.498;12.138;2022-08-27T13:28:07;96944.00;;;21.90
14784;BMP180;7483;50.498;12.138;2022-08-27T13:30:41;96943.00;;;22.00
14784;BMP180;7483;50.498;12.138;2022-08-27T13:33:18;96954.00;;;22.10
14784;BMP180;7483;50.498;12.138;2022-08-27T13:35:48;96938.00;;;22.20
14784;BMP180;7483;50.498;12.138;2022-08-27T13:38:20;96933.00;;;22.20
14784;BMP180;7483;50.498;12.138;2022-08-27T13:40:56;96935.00;;;22.10
14784;BMP180;7483;50.498;12.138;2022-08-27T13:43:35;96948.00;;;22.10
14784;BMP180;7483;50.498;12.138;2022-08-27T13:46:09;96931.00;;;22.10
14784;BMP180;7483;50.498;12.138;2022-08-27T13:48:40;96936.00;;;22.40
14784;BMP180;7483;50.498;12.138;2022-08-27T13:51:10;96940.00;;;22.50
14784;BMP180;7483;50.498;12.138;2022-08-27T13:53:45;96945.00;;;22.50
14784;BMP180;7483;50.498;12.138;2022-08-27T13:56:35;96952.00;;;22.50
14784;BMP180;7483;50.498;12.138;2022-08-27T13:59:13;96958.00;;;22.30
14784;BMP180;7483;50.498;12.138;2022-08-27T14:01:54;96951.00;;;22.20
14784;BMP180;7483;50.498;12.138;2022-08-27T14:04:32;96947.00;;;22.00
14784;BMP180;7483;50.498;12.138;2022-08-27T14:07:09;96953.00;;;21.90
14784;BMP180;7483;50.498;12.138;2022-08-27T14:09:46;96955.00;;;21.70
14784;BMP180;7483;50.498;12.138;2022-08-27T14:12:27;96954.00;;;21.60
14784;BMP180;7483;50.498;12.138;2022-08-27T14:15:18;96961.00;;;21.50
14784;BMP180;7483;50.498;12.138;2022-08-27T14:17:49;96961.00;;;21.60
14784;BMP180;7483;50.498;12.138;2022-08-27T14:20:18;96963.00;;;21.50
14784;BMP180;7483;50.498;12.138;2022-08-27T14:22:48;96941.00;;;21.50
14784;BMP180;7483;50.498;12.138;2022-08-27T14:25:18;96965.00;;;21.50
14784;BMP180;7483;50.498;12.138;2022-08-27T14:27:50;96964.00;;;21.50
14784;BMP180;7483;50.498;12.138;2022-08-27T14:30:24;96955.00;;;21.60
14784;BMP180;7483;50.498;12.138;2022-08-27T14:32:57;96957.00;;;21.60
14784;BMP180;7483;50.498;12.138;2022-08-27T14:35:27;96966.00;;;21.60
14784;BMP180;7483;50.498;12.138;2022-08-27T14:37:58;96936.00;;;21.60
14784;BMP180;7483;50.498;12.138;2022-08-27T14:40:28;96952.00;;;21.50
14784;BMP180;7483;50.498;12.138;2022-08-27T14:42:58;96950.00;;;21.50
14784;BMP180;7483;50.498;12.138;2022-08-27T14:45:28;96958.00;;;21.50
14784;BMP180;7483;50.498;12.138;2022-08-27T14:47:56;96933.00;;;21.50
14784;BMP180;7483;50.498;12.138;2022-08-27T14:50:28;96862.00;;;21.50
14784;BMP180;7483;50.498;12.138;2022-08-27T14:52:56;96845.00;;;21.40